Time;durP1;ratioP1;P1;durP2;ratioP2;P2;SDS_P1;SDS_P2;PMS_P1;PMS_P2;Temp;Humidity;BMP_temperature;BMP_pressure;BME280_temperature;BME280_humidity;BME280_pressure;Samples;Min_cycle;Max_cycle;Signal;HPM_P1;HPM_P2
2022/07/09 00:00:18;;;;;;;;;;;;;;;27.32;40.38;100223.38;5059591;28;1430;-28
2022/07/09 00:02:44;;;;;;;;;;;;;;;27.72;38.74;100220.13;5067343;28;977;-27
2022/07/09 00:05:10;;;;;;;;;;;;;;;27.66;38.80;100216.31;5065913;28;1063;-28
2022/07/09 00:07:35;;;;;;;;;;;;;;;27.60;40.31;100225.22;5065698;28;1143;-29
2022/07/09 00:10:01;;;;;;;;;;;;;;;27.70;38.63;100214.91;5062016;28;1181;-29
2022/07/09 00:12:26;;;;;;;;;;;;;;;27.41;39.54;100215.97;5064744;28;1020;-28
2022/07/09 00:14:51;;;;;;;;;;;;;;;27.77;38.54;100212.25;5068230;28;1898;-29
2022/07/09 00:17:17;;;;;;;;;;;;;;;27.62;39.17;100221.28;5064052;28;957;-27
2022/07/09 00:19:42;;;;;;;;;;;;;;;27.53;40.74;100216.25;5060983;28;946;-28
2022/07/09 00:22:07;;;;;;;;;;;;;;;27.72;38.70;100214.72;5063380;28;956;-27
2022/07/09 00:24:32;;;;;;;;;;;;;;;27.62;38.99;100218.59;5062170;28;1032;-28
2022/07/09 00:26:58;;;;;;;;;;;;;;;27.96;38.48;100223.34;5065101;28;1155;-27
2022/07/09 00:29:23;;;;;;;;;;;;;;;27.71;38.77;100221.97;5062301;28;1064;-29
2022/07/09 00:31:48;;;;;;;;;;;;;;;27.47;40.50;100229.53;5059474;28;992;-28
2022/07/09 00:34:13;;;;;;;;;;;;;;;27.85;38.17;100228.28;5066273;28;1894;-27
2022/07/09 00:36:39;;;;;;;;;;;;;;;27.69;39.14;100229.47;5066876;28;1016;-28
2022/07/09 00:39:04;;;;;;;;;;;;;;;27.82;39.41;100233.25;5072623;28;980;-27
2022/07/09 00:41:29;;;;;;;;;;;;;;;27.81;38.88;100226.19;5063557;28;1106;-29
2022/07/09 00:43:55;;;;;;;;;;;;;;;27.46;40.22;100225.13;5068789;28;1187;-28
2022/07/09 00:46:20;;;;;;;;;;;;;;;27.90;38.60;100222.28;5060372;28;1064;-27
2022/07/09 00:48:46;;;;;;;;;;;;;;;27.72;38.96;100222.81;5063079;28;1012;-28
2022/07/09 00:51:14;;;;;;;;;;;;;;;27.77;39.86;100220.34;5068001;28;1000;-28
2022/07/09 00:53:39;;;;;;;;;;;;;;;27.86;38.70;100213.72;5068745;28;934;-33
2022/07/09 00:56:05;;;;;;;;;;;;;;;27.58;39.60;100214.59;5064800;28;1905;-27
2022/07/09 00:58:30;;;;;;;;;;;;;;;27.88;38.62;100205.41;5067210;28;992;-30
2022/07/09 01:00:55;;;;;;;;;;;;;;;27.70;38.78;100205.97;5064885;28;1072;-29
2022/07/09 01:03:21;;;;;;;;;;;;;;;27.70;40.60;100205.97;5068459;28;984;-29
2022/07/09 01:05:46;;;;;;;;;;;;;;;27.77;39.05;100206.84;5067171;28;1063;-29
2022/07/09 01:08:11;;;;;;;;;;;;;;;27.66;39.91;100205.50;5062230;28;1150;-29
2022/07/09 01:10:37;;;;;;;;;;;;;;;27.91;39.22;100205.00;5067824;28;1159;-28
2022/07/09 01:13:03;;;;;;;;;;;;;;;27.72;39.30;100209.31;5062260;28;1120;-29
2022/07/09 01:15:28;;;;;;;;;;;;;;;27.68;40.66;100205.28;5070484;28;1906;-29
2022/07/09 01:17:55;;;;;;;;;;;;;;;27.90;39.18;100205.22;5071886;28;1144;-27
2022/07/09 01:20:29;;;;;;;;;;;;;;;27.73;39.74;100201.00;5059147;28;885;-27
2022/07/09 01:22:55;;;;;;;;;;;;;;;27.77;39.23;100201.44;5058821;28;973;-28
2022/07/09 01:25:20;;;;;;;;;;;;;;;27.78;39.33;100203.09;5067456;28;1135;-29
2022/07/09 01:27:45;;;;;;;;;;;;;;;27.67;40.10;100195.53;5066219;28;996;-30
2022/07/09 01:30:11;;;;;;;;;;;;;;;27.97;38.87;100193.41;5068661;28;1136;-28
2022/07/09 01:32:36;;;;;;;;;;;;;;;27.75;39.59;100193.53;5071678;28;797;-31
2022/07/09 01:35:01;;;;;;;;;;;;;;;27.85;39.26;100197.72;5063277;28;1898;-28
2022/07/09 01:37:27;;;;;;;;;;;;;;;27.87;39.58;100203.75;5069887;28;1031;-29
2022/07/09 01:39:52;;;;;;;;;;;;;;;27.59;40.23;100204.66;5070172;28;1044;-29
2022/07/09 01:42:18;;;;;;;;;;;;;;;27.96;38.99;100207.13;5072560;28;1048;-28
2022/07/09 01:44:44;;;;;;;;;;;;;;;27.88;39.40;100200.00;5062981;28;1020;-31
2022/07/09 01:47:09;;;;;;;;;;;;;;;27.87;40.32;100199.19;5061356;28;988;-29
2022/07/09 01:49:34;;;;;;;;;;;;;;;27.95;39.25;100200.88;5066864;28;1047;-29
2022/07/09 01:51:59;;;;;;;;;;;;;;;27.82;39.83;100196.25;5067397;28;1091;-27
2022/07/09 01:54:25;;;;;;;;;;;;;;;27.98;39.20;100196.94;5060849;28;1910;-27
2022/07/09 01:56:50;;;;;;;;;;;;;;;27.92;39.39;100198.59;5064509;28;1163;-27
2022/07/09 01:59:15;;;;;;;;;;;;;;;27.78;40.41;100186.06;5062312;28;1004;-29
2022/07/09 02:01:41;;;;;;;;;;;;;;;28.02;39.13;100190.09;5068870;28;1020;-27
2022/07/09 02:04:06;;;;;;;;;;;;;;;28.02;39.07;100194.66;5065670;28;1090;-27
2022/07/09 02:06:31;;;;;;;;;;;;;;;28.07;38.16;100186.78;5068077;28;1115;-28
2022/07/09 02:08:56;;;;;;;;;;;;;;;28.06;38.66;100183.22;5062312;28;969;-30
2022/07/09 02:11:22;;;;;;;;;;;;;;;27.74;40.23;100180.22;5069992;28;1143;-29
2022/07/09 02:13:47;;;;;;;;;;;;;;;28.03;38.90;100183.66;5063566;28;1068;-28
2022/07/09 02:16:12;;;;;;;;;;;;;;;27.79;40.00;100174.22;5070719;28;1910;-29
2022/07/09 02:18:38;;;;;;;;;;;;;;;28.03;39.01;100182.84;5057654;28;969;-28
2022/07/09 02:21:05;;;;;;;;;;;;;;;27.99;38.84;100180.50;5065634;28;988;-28
2022/07/09 02:23:30;;;;;;;;;;;;;;;27.76;40.51;100186.25;5066282;28;1021;-32
2022/07/09 02:25:55;;;;;;;;;;;;;;;27.99;39.33;100183.22;5057562;28;973;-31
2022/07/09 02:28:20;;;;;;;;;;;;;;;27.96;39.11;100180.91;5060325;28;1032;-28
2022/07/09 02:30:46;;;;;;;;;;;;;;;27.93;39.12;100181.31;5068087;28;976;-28
2022/07/09 02:33:11;;;;;;;;;;;;;;;28.05;39.26;100184.28;5068954;28;1037;-27
2022/07/09 02:35:37;;;;;;;;;;;;;;;27.93;38.95;100184.03;5061731;28;1967;-28
2022/07/09 02:38:02;;;;;;;;;;;;;;;28.04;38.67;100185.31;5064953;28;1039;-27
2022/07/09 02:40:27;;;;;;;;;;;;;;;27.94;39.20;100184.88;5070385;28;1116;-28
2022/07/09 02:42:52;;;;;;;;;;;;;;;27.88;39.63;100183.78;5060318;28;1024;-29
2022/07/09 02:45:18;;;;;;;;;;;;;;;27.98;38.85;100191.53;5060975;28;1007;-30
2022/07/09 02:47:43;;;;;;;;;;;;;;;27.85;39.14;100182.34;5067006;28;1262;-29
2022/07/09 02:50:09;;;;;;;;;;;;;;;28.06;38.34;100177.81;5061005;28;1044;-27
2022/07/09 02:52:34;;;;;;;;;;;;;;;28.03;38.46;100174.72;5065264;28;1088;-28
2022/07/09 02:54:59;;;;;;;;;;;;;;;27.83;40.03;100178.16;5064538;28;1898;-28
2022/07/09 02:57:25;;;;;;;;;;;;;;;28.04;38.62;100182.63;5059122;28;2257;-32
2022/07/09 02:59:50;;;;;;;;;;;;;;;27.71;37.81;100173.34;5060812;28;1828;-27
2022/07/09 03:02:15;;;;;;;;;;;;;;;26.65;40.62;100173.22;5058693;28;2239;-28
2022/07/09 03:04:41;;;;;;;;;;;;;;;27.09;39.85;100174.00;5057155;28;1992;-28
2022/07/09 03:07:06;;;;;;;;;;;;;;;27.10;40.40;100172.13;5058401;28;2038;-29
2022/07/09 03:09:32;;;;;;;;;;;;;;;26.87;42.40;100170.50;5066222;28;2136;-28
2022/07/09 03:11:57;;;;;;;;;;;;;;;27.43;38.73;100165.25;5067535;28;2112;-30
2022/07/09 03:14:22;;;;;;;;;;;;;;;27.33;39.40;100168.31;5058684;28;1902;-26
2022/07/09 03:16:47;;;;;;;;;;;;;;;27.67;39.42;100166.66;5061616;28;1191;-28
2022/07/09 03:19:13;;;;;;;;;;;;;;;27.67;38.31;100171.22;5058447;28;1000;-29
2022/07/09 03:21:39;;;;;;;;;;;;;;;27.42;39.62;100164.44;5057728;28;1140;-30
2022/07/09 03:24:04;;;;;;;;;;;;;;;27.58;37.81;100159.72;5058077;28;1282;-28
2022/07/09 03:26:29;;;;;;;;;;;;;;;27.58;38.15;100160.56;5070076;28;776;-28
2022/07/09 03:28:55;;;;;;;;;;;;;;;27.58;38.17;100157.88;5071986;28;1023;-31
2022/07/09 03:31:20;;;;;;;;;;;;;;;27.64;37.94;100161.66;5070888;28;1031;-29
2022/07/09 03:33:45;;;;;;;;;;;;;;;27.58;37.91;100171.38;5063994;28;1555;-28
2022/07/09 03:36:11;;;;;;;;;;;;;;;27.71;36.55;100170.63;5068873;28;1929;-30
2022/07/09 03:38:36;;;;;;;;;;;;;;;27.41;37.17;100172.75;5064551;28;1047;-27
2022/07/09 03:41:01;;;;;;;;;;;;;;;26.60;40.79;100167.56;5068302;28;1112;-29
2022/07/09 03:43:27;;;;;;;;;;;;;;;26.93;39.59;100179.66;5056593;28;2198;-27
2022/07/09 03:45:52;;;;;;;;;;;;;;;26.68;38.38;100178.22;5063711;28;1012;-27
2022/07/09 03:48:17;;;;;;;;;;;;;;;26.53;38.90;100171.03;5064550;28;973;-28
2022/07/09 03:50:43;;;;;;;;;;;;;;;26.71;36.71;100183.22;5057693;28;1167;-29
2022/07/09 03:53:08;;;;;;;;;;;;;;;26.96;38.37;100188.19;5064973;28;1032;-29
2022/07/09 03:55:33;;;;;;;;;;;;;;;27.25;38.06;100199.88;5059600;28;1901;-27
2022/07/09 03:57:59;;;;;;;;;;;;;;;27.44;37.11;100212.88;5065750;28;1136;-28
2022/07/09 04:00:25;;;;;;;;;;;;;;;27.34;38.11;100213.22;5062726;28;1137;-27
2022/07/09 04:02:50;;;;;;;;;;;;;;;27.06;36.41;100224.88;5063441;28;944;-28
2022/07/09 04:05:16;;;;;;;;;;;;;;;26.72;36.32;100214.59;5072907;28;1067;-30
2022/07/09 04:07:41;;;;;;;;;;;;;;;26.92;36.42;100216.63;5062296;28;984;-27
2022/07/09 04:10:07;;;;;;;;;;;;;;;27.51;36.15;100217.28;5062879;28;1134;-28
2022/07/09 04:12:32;;;;;;;;;;;;;;;27.57;36.12;100217.50;5063884;28;2561;-27
2022/07/09 04:14:58;;;;;;;;;;;;;;;27.42;35.73;100196.88;5058396;28;1914;-28
2022/07/09 04:17:23;;;;;;;;;;;;;;;27.42;35.35;100201.41;5068283;28;972;-27
2022/07/09 04:19:48;;;;;;;;;;;;;;;27.47;35.67;100198.97;5068986;28;999;-27
2022/07/09 04:22:14;;;;;;;;;;;;;;;27.52;35.20;100199.19;5067887;28;992;-28
2022/07/09 04:24:39;;;;;;;;;;;;;;;27.58;34.79;100202.97;5070288;28;949;-27
2022/07/09 04:27:04;;;;;;;;;;;;;;;27.60;35.38;100204.44;5069987;28;1205;-27
2022/07/09 04:29:30;;;;;;;;;;;;;;;26.67;36.77;100197.31;5077655;28;976;-27
2022/07/09 04:31:55;;;;;;;;;;;;;;;26.47;37.99;100198.78;5077085;28;1218;-30
2022/07/09 04:34:20;;;;;;;;;;;;;;;26.65;38.86;100192.09;5079123;28;2371;-27
2022/07/09 04:36:46;;;;;;;;;;;;;;;27.09;37.16;100198.28;5071328;28;1015;-27
2022/07/09 04:39:11;;;;;;;;;;;;;;;27.09;37.01;100187.50;5066976;28;918;-27
2022/07/09 04:41:36;;;;;;;;;;;;;;;27.41;35.37;100195.19;5074152;28;980;-29
2022/07/09 04:44:02;;;;;;;;;;;;;;;27.42;35.43;100196.88;5061064;28;2601;-30
2022/07/09 04:46:30;;;;;;;;;;;;;;;27.54;35.75;100205.25;5072127;28;984;-28
2022/07/09 04:48:55;;;;;;;;;;;;;;;27.68;35.84;100211.56;5070861;28;1163;-28
2022/07/09 04:51:21;;;;;;;;;;;;;;;27.66;34.09;100208.19;5075071;28;849;-27
2022/07/09 04:53:46;;;;;;;;;;;;;;;26.16;38.69;100203.41;5076320;28;1275;-28
2022/07/09 04:56:11;;;;;;;;;;;;;;;26.88;37.28;100193.75;5068448;28;1897;-26
2022/07/09 04:58:37;;;;;;;;;;;;;;;27.09;37.17;100194.78;5076055;28;1039;-26
2022/07/09 05:01:03;;;;;;;;;;;;;;;27.26;36.87;100198.00;5077601;28;1299;-28
2022/07/09 05:03:28;;;;;;;;;;;;;;;27.45;35.65;100191.06;5067909;28;1047;-26
2022/07/09 05:05:54;;;;;;;;;;;;;;;27.64;35.66;100185.97;5066345;28;945;-27
2022/07/09 05:08:19;;;;;;;;;;;;;;;27.73;34.82;100183.94;5071712;28;1395;-30
2022/07/09 05:10:44;;;;;;;;;;;;;;;24.14;40.12;100177.66;5068583;28;992;-28
2022/07/09 05:13:09;;;;;;;;;;;;;;;24.77;41.56;100182.16;5071062;28;2562;-27
2022/07/09 05:15:35;;;;;;;;;;;;;;;25.94;42.45;100180.13;5063942;28;1972;-28
2022/07/09 05:18:00;;;;;;;;;;;;;;;24.41;42.10;100180.91;5073497;28;1128;-29
2022/07/09 05:20:26;;;;;;;;;;;;;;;24.09;45.36;100171.97;5076335;28;1016;-27
2022/07/09 05:22:51;;;;;;;;;;;;;;;25.70;39.13;100182.09;5072288;28;1229;-31
2022/07/09 05:25:16;;;;;;;;;;;;;;;23.80;46.08;100178.84;5067861;28;1017;-27
2022/07/09 05:27:45;;;;;;;;;;;;;;;25.23;40.94;100185.78;5063110;28;1134;-31
2022/07/09 05:30:11;;;;;;;;;;;;;;;23.92;43.21;100174.75;5068796;28;952;-27
2022/07/09 05:32:36;;;;;;;;;;;;;;;24.41;43.53;100178.22;5071107;28;1012;-27
2022/07/09 05:35:01;;;;;;;;;;;;;;;25.01;40.12;100172.22;5069455;28;1894;-27
2022/07/09 05:37:27;;;;;;;;;;;;;;;23.75;46.61;100176.69;5074240;28;1075;-27
2022/07/09 05:39:52;;;;;;;;;;;;;;;25.38;39.89;100177.72;5064807;28;1231;-27
2022/07/09 05:42:17;;;;;;;;;;;;;;;23.95;43.06;100169.06;5074057;28;2444;-28
2022/07/09 05:44:43;;;;;;;;;;;;;;;24.30;43.66;100167.88;5074099;28;1185;-26
2022/07/09 05:47:08;;;;;;;;;;;;;;;25.07;40.31;100162.56;5069910;28;1024;-27
2022/07/09 05:49:33;;;;;;;;;;;;;;;23.88;45.49;100159.16;5071854;28;1103;-30
2022/07/09 05:51:58;;;;;;;;;;;;;;;25.74;39.83;100161.88;5066578;28;1003;-29
2022/07/09 05:54:24;;;;;;;;;;;;;;;23.57;45.34;100160.81;5061972;28;1952;-30
2022/07/09 05:56:50;;;;;;;;;;;;;;;25.12;41.46;100156.63;5064687;28;1127;-27
2022/07/09 05:59:15;;;;;;;;;;;;;;;24.17;42.95;100150.47;5075117;28;1000;-26
2022/07/09 06:01:42;;;;;;;;;;;;;;;24.80;42.69;100159.44;5075949;28;1170;-27
2022/07/09 06:04:08;;;;;;;;;;;;;;;25.77;39.04;100159.63;5065297;28;1047;-26
2022/07/09 06:06:33;;;;;;;;;;;;;;;24.45;43.17;100154.50;5064881;28;973;-27
2022/07/09 06:08:58;;;;;;;;;;;;;;;25.73;39.75;100146.72;5067173;28;1079;-30
2022/07/09 06:11:24;;;;;;;;;;;;;;;24.12;45.97;100143.94;5066362;28;1025;-27
2022/07/09 06:13:49;;;;;;;;;;;;;;;25.74;39.93;100143.00;5067381;28;2560;-24
2022/07/09 06:16:14;;;;;;;;;;;;;;;24.02;43.71;100136.09;5063878;28;1982;-23
2022/07/09 06:18:40;;;;;;;;;;;;;;;25.07;41.67;100136.47;5071417;28;1083;-23
2022/07/09 06:21:05;;;;;;;;;;;;;;;24.48;42.47;100142.53;5075271;28;980;-24
2022/07/09 06:23:30;;;;;;;;;;;;;;;24.73;43.35;100143.19;5074661;28;1190;-24
2022/07/09 06:25:55;;;;;;;;;;;;;;;25.30;40.21;100150.91;5076648;28;1103;-24
2022/07/09 06:28:21;;;;;;;;;;;;;;;24.21;44.24;100143.75;5064612;28;1118;-24
2022/07/09 06:30:46;;;;;;;;;;;;;;;25.85;39.62;100141.66;5066726;28;1433;-24
2022/07/09 06:33:11;;;;;;;;;;;;;;;24.12;46.01;100128.66;5071471;28;1036;-23
2022/07/09 06:35:37;;;;;;;;;;;;;;;25.72;40.33;100120.81;5068106;28;1971;-24
2022/07/09 06:38:02;;;;;;;;;;;;;;;23.97;43.60;100123.22;5073167;28;1047;-24
2022/07/09 06:40:27;;;;;;;;;;;;;;;25.10;42.07;100132.59;5061492;28;1150;-25
2022/07/09 06:42:52;;;;;;;;;;;;;;;24.69;41.67;100137.31;5067458;28;2623;-24
2022/07/09 06:45:18;;;;;;;;;;;;;;;24.53;43.92;100145.53;5068308;28;1119;-24
2022/07/09 06:47:43;;;;;;;;;;;;;;;25.75;40.11;100136.59;5075435;28;1000;-25
2022/07/09 06:50:08;;;;;;;;;;;;;;;24.01;46.88;100123.66;5076411;28;1075;-24
2022/07/09 06:52:34;;;;;;;;;;;;;;;25.82;40.46;100118.66;5063326;28;1013;-24
2022/07/09 06:54:59;;;;;;;;;;;;;;;23.87;43.79;100117.22;5070345;28;1975;-23
2022/07/09 06:57:24;;;;;;;;;;;;;;;24.98;42.79;100116.06;5064367;28;1015;-24
2022/07/09 06:59:50;;;;;;;;;;;;;;;24.74;41.88;100130.56;5075024;28;1222;-23
2022/07/09 07:02:18;;;;;;;;;;;;;;;24.43;44.27;100124.25;5069230;28;1082;-23
2022/07/09 07:04:43;;;;;;;;;;;;;;;25.71;39.84;100124.53;5060640;28;941;-23
2022/07/09 07:07:09;;;;;;;;;;;;;;;23.96;46.79;100122.38;5069455;28;1067;-23
2022/07/09 07:09:34;;;;;;;;;;;;;;;25.73;40.26;100112.53;5069469;28;1080;-23
2022/07/09 07:11:59;;;;;;;;;;;;;;;24.06;45.34;100114.06;5069647;28;2637;-23
2022/07/09 07:14:25;;;;;;;;;;;;;;;25.18;40.75;100102.91;5070652;28;1917;-23
2022/07/09 07:16:50;;;;;;;;;;;;;;;24.08;42.29;100124.66;5063881;28;1234;-24
2022/07/09 07:19:16;;;;;;;;;;;;;;;25.07;40.86;100131.09;5074856;28;1094;-24
2022/07/09 07:21:42;;;;;;;;;;;;;;;24.57;41.19;100123.47;5074677;28;1162;-24
2022/07/09 07:24:07;;;;;;;;;;;;;;;24.98;42.00;100129.53;5076475;28;1075;-23
2022/07/09 07:26:33;;;;;;;;;;;;;;;24.92;40.57;100125.69;5061333;28;941;-24
2022/07/09 07:28:59;;;;;;;;;;;;;;;24.79;42.32;100125.50;5059843;28;842;-24
2022/07/09 07:31:24;;;;;;;;;;;;;;;25.35;39.85;100128.78;5071055;28;996;-25
2022/07/09 07:33:50;;;;;;;;;;;;;;;24.27;43.83;100127.91;5067676;28;1524;-24
2022/07/09 07:36:15;;;;;;;;;;;;;;;25.80;39.37;100132.31;5070353;28;1898;-24
2022/07/09 07:38:40;;;;;;;;;;;;;;;23.84;46.57;100132.66;5072746;28;1111;-25
2022/07/09 07:41:06;;;;;;;;;;;;;;;25.38;41.21;100128.41;5060993;28;881;-24
2022/07/09 07:43:31;;;;;;;;;;;;;;;24.19;44.02;100134.19;5056749;28;2532;-24
2022/07/09 07:45:56;;;;;;;;;;;;;;;25.34;41.52;100140.59;5062525;28;1032;-24
2022/07/09 07:48:22;;;;;;;;;;;;;;;24.55;42.50;100125.53;5065804;28;1228;-25
2022/07/09 07:50:47;;;;;;;;;;;;;;;24.78;42.60;100134.56;5071238;28;1226;-24
2022/07/09 07:53:12;;;;;;;;;;;;;;;25.18;41.43;100143.28;5061178;28;1012;-24
2022/07/09 07:55:39;;;;;;;;;;;;;;;24.27;45.51;100138.66;5062210;28;1890;-25
2022/07/09 07:58:04;;;;;;;;;;;;;;;25.78;40.46;100145.13;5073594;28;1167;-26
2022/07/09 08:00:29;;;;;;;;;;;;;;;23.95;46.79;100134.13;5067832;28;1194;-25
2022/07/09 08:02:55;;;;;;;;;;;;;;;25.28;41.06;100148.38;5069112;28;1008;-26
2022/07/09 08:05:20;;;;;;;;;;;;;;;24.09;43.86;100142.44;5067167;28;898;-25
2022/07/09 08:07:45;;;;;;;;;;;;;;;25.05;42.36;100151.16;5075300;28;1043;-26
2022/07/09 08:10:11;;;;;;;;;;;;;;;24.71;42.44;100153.28;5073896;28;1098;-28
2022/07/09 08:12:36;;;;;;;;;;;;;;;24.49;44.10;100160.34;5075314;28;2513;-28
2022/07/09 08:15:01;;;;;;;;;;;;;;;25.61;40.46;100157.13;5075963;28;1905;-25
2022/07/09 08:17:26;;;;;;;;;;;;;;;24.31;44.68;100161.47;5073596;28;965;-27
2022/07/09 08:19:52;;;;;;;;;;;;;;;25.72;40.17;100158.50;5076858;28;1194;-28
2022/07/09 08:22:17;;;;;;;;;;;;;;;24.14;47.02;100168.78;5061998;28;989;-27
2022/07/09 08:24:42;;;;;;;;;;;;;;;25.49;41.31;100164.81;5072976;28;1000;-25
2022/07/09 08:27:07;;;;;;;;;;;;;;;24.03;45.58;100167.31;5069459;28;1030;-25
2022/07/09 08:29:33;;;;;;;;;;;;;;;25.47;41.78;100183.88;5072566;28;818;-25
2022/07/09 08:31:58;;;;;;;;;;;;;;;24.21;44.01;100175.13;5071685;28;1134;-25
2022/07/09 08:34:23;;;;;;;;;;;;;;;25.01;42.41;100179.44;5076395;28;1963;-25
2022/07/09 08:36:49;;;;;;;;;;;;;;;24.76;42.71;100167.03;5063566;28;1245;-24
2022/07/09 08:39:14;;;;;;;;;;;;;;;24.76;42.92;100183.16;5077744;28;1125;-25
2022/07/09 08:41:39;;;;;;;;;;;;;;;25.37;40.85;100180.59;5077345;28;834;-24
2022/07/09 08:44:05;;;;;;;;;;;;;;;24.42;43.83;100177.19;5067586;28;2376;-24
2022/07/09 08:46:33;;;;;;;;;;;;;;;25.72;39.56;100180.06;5064832;28;1056;-24
2022/07/09 08:48:58;;;;;;;;;;;;;;;24.21;44.85;100180.50;5069105;28;1063;-24
2022/07/09 08:51:24;;;;;;;;;;;;;;;25.78;39.61;100187.38;5073218;28;996;-24
2022/07/09 08:53:49;;;;;;;;;;;;;;;23.93;45.45;100175.59;5066277;28;1000;-24
2022/07/09 08:56:14;;;;;;;;;;;;;;;25.23;41.07;100187.63;5059539;28;1959;-25
2022/07/09 08:58:40;;;;;;;;;;;;;;;24.32;43.20;100176.59;5067367;28;988;-25
2022/07/09 09:01:06;;;;;;;;;;;;;;;24.86;42.17;100184.78;5067817;28;1078;-24
2022/07/09 09:03:31;;;;;;;;;;;;;;;25.02;41.38;100179.28;5072368;28;1027;-25
2022/07/09 09:06:01;;;;;;;;;;;;;;;24.48;43.51;100182.88;5073373;28;949;-24
2022/07/09 09:08:26;;;;;;;;;;;;;;;25.79;39.98;100176.44;5062637;28;965;-24
2022/07/09 09:10:52;;;;;;;;;;;;;;;23.95;47.03;100178.97;5076773;28;995;-25
2022/07/09 09:13:17;;;;;;;;;;;;;;;25.48;40.25;100182.84;5075006;28;2648;-24
2022/07/09 09:15:43;;;;;;;;;;;;;;;24.05;45.46;100170.69;5078093;28;1905;-24
2022/07/09 09:18:08;;;;;;;;;;;;;;;25.29;41.54;100182.34;5069948;28;893;-24
2022/07/09 09:20:34;;;;;;;;;;;;;;;24.19;43.34;100175.31;5068682;28;1020;-24
2022/07/09 09:23:00;;;;;;;;;;;;;;;24.96;41.46;100174.59;5072845;28;988;-24
2022/07/09 09:25:25;;;;;;;;;;;;;;;24.64;42.16;100180.06;5060348;28;950;-24
2022/07/09 09:27:51;;;;;;;;;;;;;;;24.50;43.12;100172.78;5074484;28;1027;-24
2022/07/09 09:30:17;;;;;;;;;;;;;;;25.65;40.50;100174.59;5063398;28;1091;-24
2022/07/09 09:32:42;;;;;;;;;;;;;;;23.93;46.38;100178.28;5075731;28;1049;-24
2022/07/09 09:35:08;;;;;;;;;;;;;;;25.46;40.68;100171.41;5063280;28;1949;-24
2022/07/09 09:37:33;;;;;;;;;;;;;;;24.03;44.02;100167.31;5077334;28;1069;-24
2022/07/09 09:39:58;;;;;;;;;;;;;;;24.92;41.68;100174.13;5077930;28;1142;-26
2022/07/09 09:42:24;;;;;;;;;;;;;;;24.73;42.44;100167.38;5061590;28;2456;-26
2022/07/09 09:44:50;;;;;;;;;;;;;;;24.70;42.31;100175.81;5071777;28;976;-24
2022/07/09 09:47:15;;;;;;;;;;;;;;;25.56;40.72;100169.28;5068851;28;1039;-24
2022/07/09 09:49:41;;;;;;;;;;;;;;;23.85;47.01;100166.59;5071322;28;1441;-26
2022/07/09 09:52:09;;;;;;;;;;;;;;;25.40;41.18;100169.47;5066176;28;999;-25
2022/07/09 09:54:35;;;;;;;;;;;;;;;23.96;44.32;100165.34;5065260;28;1985;-24
2022/07/09 09:57:08;;;;;;;;;;;;;;;25.16;41.10;100174.06;5063541;28;1186;-25
2022/07/09 09:59:37;;;;;;;;;;;;;;;24.61;42.33;100169.66;5070123;28;1000;-26
2022/07/09 10:02:02;;;;;;;;;;;;;;;24.83;41.96;100159.91;5073691;28;1063;-25
2022/07/09 10:04:28;;;;;;;;;;;;;;;25.27;40.79;100149.41;5073579;28;980;-26
2022/07/09 10:06:53;;;;;;;;;;;;;;;23.99;46.48;100149.91;5063327;28;1058;-27
2022/07/09 10:09:19;;;;;;;;;;;;;;;25.54;40.00;100154.34;5074329;28;1108;-26
2022/07/09 10:11:45;;;;;;;;;;;;;;;23.76;44.72;100162.25;5063633;28;1075;-27
2022/07/09 10:14:23;;;;;;;;;;;;;;;25.01;41.23;100158.75;5058659;28;2716;-27
2022/07/09 10:16:48;;;;;;;;;;;;;;;24.61;42.44;100161.59;5066229;28;1913;-26
2022/07/09 10:19:22;;;;;;;;;;;;;;;24.60;43.38;100159.09;5063375;28;1000;-28
2022/07/09 10:21:50;;;;;;;;;;;;;;;25.63;40.17;100169.41;5067110;28;1178;-27
2022/07/09 10:24:23;;;;;;;;;;;;;;;23.66;45.91;100159.78;5064384;28;1044;-25
2022/07/09 10:26:48;;;;;;;;;;;;;;;25.37;41.28;100175.22;5061123;28;1240;-25
2022/07/09 10:29:23;;;;;;;;;;;;;;;24.36;42.22;100171.72;5070865;28;1024;-25
2022/07/09 10:31:48;;;;;;;;;;;;;;;24.53;43.10;100165.19;5070304;28;1144;-25
2022/07/09 10:34:32;;;;;;;;;;;;;;;25.77;39.48;100153.41;5074247;28;1076;-26
2022/07/09 10:36:58;;;;;;;;;;;;;;;24.30;44.26;100147.22;5060707;28;1253;-25
2022/07/09 10:39:23;;;;;;;;;;;;;;;25.71;38.67;100154.97;5067416;28;1031;-25
2022/07/09 10:41:58;;;;;;;;;;;;;;;23.96;43.61;100145.69;5062079;28;1095;-25
2022/07/09 10:44:41;;;;;;;;;;;;;;;25.38;40.16;100152.66;5062021;28;1037;-25
2022/07/09 10:47:06;;;;;;;;;;;;;;;24.18;42.46;100152.16;5070220;28;1146;-30
2022/07/09 10:49:35;;;;;;;;;;;;;;;24.81;41.00;100148.47;5067697;28;1633;-26
2022/07/09 10:52:00;;;;;;;;;;;;;;;25.17;39.63;100146.16;5068543;28;1068;-26
2022/07/09 10:54:26;;;;;;;;;;;;;;;24.39;42.74;100153.34;5065273;28;960;-25
2022/07/09 10:56:52;;;;;;;;;;;;;;;25.69;38.14;100148.97;5062272;28;2054;-26
2022/07/09 10:59:20;;;;;;;;;;;;;;;23.90;45.35;100151.78;5072030;28;992;-27
2022/07/09 11:01:45;;;;;;;;;;;;;;;25.28;39.23;100137.63;5071089;28;1280;-26
2022/07/09 11:04:13;;;;;;;;;;;;;;;23.93;43.04;100138.00;5074787;28;999;-25
2022/07/09 11:06:45;;;;;;;;;;;;;;;24.98;41.00;100142.97;5062279;28;1166;-26
2022/07/09 11:09:13;;;;;;;;;;;;;;;24.62;41.55;100135.53;5067469;28;1201;-26
2022/07/09 11:11:38;;;;;;;;;;;;;;;24.52;42.66;100128.56;5064421;28;932;-25
2022/07/09 11:14:03;;;;;;;;;;;;;;;25.70;39.65;100133.63;5062332;28;2583;-25
2022/07/09 11:16:29;;;;;;;;;;;;;;;24.03;45.67;100143.13;5061787;28;1898;-25
2022/07/09 11:18:55;;;;;;;;;;;;;;;25.57;40.12;100135.09;5062713;28;914;-26
2022/07/09 11:21:24;;;;;;;;;;;;;;;23.96;43.54;100118.81;5071605;28;1111;-25
2022/07/09 11:23:49;;;;;;;;;;;;;;;25.07;41.46;100132.97;5060743;28;1048;-28
2022/07/09 11:26:15;;;;;;;;;;;;;;;24.63;42.07;100140.75;5073863;28;1056;-25
2022/07/09 11:28:40;;;;;;;;;;;;;;;24.23;43.94;100134.66;5067405;28;1111;-26
2022/07/09 11:31:05;;;;;;;;;;;;;;;25.72;40.08;100126.19;5061278;28;883;-26
2022/07/09 11:36:15;;;;;;;;;;;;;;;25.47;39.92;100135.41;5060973;28;1902;-26
2022/07/09 11:39:00;;;;;;;;;;;;;;;23.90;44.01;100125.75;5067057;28;984;-25
2022/07/09 11:41:26;;;;;;;;;;;;;;;25.26;40.39;100120.81;5061291;28;1558;-28
2022/07/09 11:43:51;;;;;;;;;;;;;;;24.34;43.04;100132.38;5056196;28;2623;-26
2022/07/09 11:46:18;;;;;;;;;;;;;;;24.44;42.95;100124.06;5073153;28;1108;-25
2022/07/09 11:48:49;;;;;;;;;;;;;;;25.58;40.17;100109.84;5067482;28;1076;-25
2022/07/09 11:51:25;;;;;;;;;;;;;;;23.79;46.93;100105.50;5067916;28;1011;-27
2022/07/09 11:53:51;;;;;;;;;;;;;;;25.48;39.92;100110.13;5071960;28;1130;-25
2022/07/09 11:56:16;;;;;;;;;;;;;;;23.80;43.82;100109.03;5059277;28;2018;-25
2022/07/09 11:58:48;;;;;;;;;;;;;;;24.99;41.17;100100.78;5072197;28;1060;-26
2022/07/09 12:01:13;;;;;;;;;;;;;;;24.54;42.05;100105.00;5060723;28;1251;-29
2022/07/09 12:03:45;;;;;;;;;;;;;;;24.30;43.84;100096.16;5067098;28;1008;-28
2022/07/09 12:06:10;;;;;;;;;;;;;;;25.62;39.76;100091.44;5064794;28;1162;-25
2022/07/09 12:08:36;;;;;;;;;;;;;;;23.70;46.83;100090.44;5064215;28;1004;-26
2022/07/09 12:11:01;;;;;;;;;;;;;;;25.26;40.29;100096.59;5069989;28;988;-26
2022/07/09 12:13:26;;;;;;;;;;;;;;;24.03;43.32;100081.34;5060730;28;2585;-25
2022/07/09 12:15:52;;;;;;;;;;;;;;;24.42;43.08;100084.97;5071275;28;1909;-26
2022/07/09 12:18:17;;;;;;;;;;;;;;;25.45;39.90;100083.59;5065657;28;1252;-26
2022/07/09 12:20:42;;;;;;;;;;;;;;;23.64;47.06;100088.47;5065882;28;1000;-24
2022/07/09 12:23:08;;;;;;;;;;;;;;;25.23;40.73;100090.72;5067550;28;1115;-27
2022/07/09 12:25:33;;;;;;;;;;;;;;;24.00;43.41;100079.03;5056623;28;1009;-26
2022/07/09 12:27:58;;;;;;;;;;;;;;;24.53;42.36;100083.69;5056156;28;1045;-26
2022/07/09 12:30:23;;;;;;;;;;;;;;;25.21;39.99;100080.16;5067875;28;1222;-25
2022/07/09 12:32:49;;;;;;;;;;;;;;;23.83;45.89;100076.44;5067615;28;1174;-25
2022/07/09 12:35:14;;;;;;;;;;;;;;;25.56;39.29;100079.56;5066235;28;1898;-25
2022/07/09 12:37:39;;;;;;;;;;;;;;;23.74;44.64;100070.28;5068679;28;1015;-25
2022/07/09 12:40:05;;;;;;;;;;;;;;;25.07;41.10;100065.69;5070577;28;1043;-26
2022/07/09 12:42:31;;;;;;;;;;;;;;;24.29;42.41;100061.38;5071651;28;2496;-27